createdAt,value
2022-11-04T06:58:08.173Z,1644
2022-11-04T06:58:56.039Z,1604
2022-11-04T06:59:55.437Z,1600
2022-11-04T07:00:55.910Z,1608
2022-11-04T07:01:56.374Z,1632
2022-11-04T07:02:55.747Z,1680
2022-11-04T07:03:55.401Z,1760
2022-11-04T07:05:55.483Z,1864
2022-11-04T07:06:55.719Z,1872
2022-11-04T07:07:56.084Z,1876
2022-11-04T07:08:55.532Z,1876
2022-11-04T07:09:55.460Z,1852
2022-11-04T07:10:55.774Z,1820
2022-11-04T07:11:55.510Z,1788
2022-11-04T07:12:55.490Z,1752
2022-11-04T07:13:56.105Z,1708
2022-11-04T07:14:56.090Z,1656
2022-11-04T07:15:55.830Z,1592
2022-11-04T07:16:55.577Z,1524
2022-11-04T07:17:56.061Z,1464
2022-11-04T07:18:55.718Z,1404
2022-11-04T07:19:56.549Z,1356
2022-11-04T07:20:56.958Z,1316
2022-11-04T07:21:55.642Z,1288
2022-11-04T07:22:55.598Z,1244
2022-11-04T07:23:55.606Z,1192
2022-11-04T07:24:55.878Z,1120
2022-11-04T07:25:56.526Z,1052
2022-11-04T07:26:55.905Z,1000
2022-11-04T07:28:01.036Z,960
2022-11-04T07:28:56.211Z,924
2022-11-04T07:29:56.001Z,916
2022-11-04T07:30:56.267Z,952
2022-11-04T07:31:55.977Z,1024
2022-11-04T07:32:55.717Z,1096
2022-11-04T07:33:56.056Z,1164
2022-11-04T07:35:27.774Z,1268
2022-11-04T07:36:03.208Z,1316
2022-11-04T07:36:56.044Z,1380
2022-11-04T07:37:55.945Z,1444
2022-11-04T07:38:55.943Z,1440
2022-11-04T07:39:55.791Z,1436
2022-11-04T07:40:55.826Z,1436
2022-11-04T07:42:02.842Z,1400
2022-11-04T07:42:55.933Z,1364
2022-11-04T07:43:55.876Z,1296
2022-11-04T07:44:55.900Z,1228
2022-11-04T07:45:56.202Z,1176
2022-11-04T07:46:56.497Z,1132
2022-11-04T07:47:55.923Z,1132
2022-11-04T07:48:56.333Z,1164
2022-11-04T07:49:56.454Z,1200
2022-11-04T07:50:56.531Z,1256
2022-11-04T07:51:55.958Z,1324
2022-11-04T07:52:55.952Z,1400
2022-11-04T07:53:56.828Z,1472
2022-11-04T07:54:55.971Z,1512
2022-11-04T07:55:57.109Z,1500
2022-11-04T07:56:56.309Z,1444
2022-11-04T07:57:57.449Z,1380
2022-11-04T07:58:56.116Z,1400
2022-11-04T07:59:56.030Z,1512
2022-11-04T08:00:56.042Z,1636
2022-11-04T08:01:57.494Z,1740
2022-11-04T08:02:57.005Z,1824
2022-11-04T08:03:56.803Z,1856
2022-11-04T08:04:56.071Z,1876
2022-11-04T08:05:56.352Z,1852
2022-11-04T08:06:56.358Z,1808
2022-11-04T08:07:56.716Z,1712
2022-11-04T08:08:56.603Z,1600
2022-11-04T08:09:56.277Z,1528
2022-11-04T08:10:57.020Z,1484
2022-11-04T08:11:56.468Z,1484
2022-11-04T08:12:56.190Z,1548
2022-11-04T08:13:56.262Z,1664
2022-11-04T08:14:56.210Z,1836
2022-11-04T08:15:56.956Z,2060
2022-11-04T08:16:56.980Z,2256
2022-11-04T08:17:56.981Z,2364
2022-11-04T08:18:56.894Z,2328
2022-11-04T08:19:56.278Z,2172
2022-11-04T08:20:56.307Z,1984
2022-11-04T08:21:56.274Z,1784
2022-11-04T08:22:56.306Z,1616
2022-11-04T08:23:56.556Z,1504
2022-11-04T08:24:56.609Z,1432
2022-11-04T08:25:56.657Z,1376
2022-11-04T08:26:57.053Z,1360
2022-11-04T08:28:04.000Z,1388
2022-11-04T08:28:56.836Z,1436
2022-11-04T08:29:57.059Z,1484
2022-11-04T08:30:57.968Z,1564
2022-11-04T08:31:56.779Z,1640
2022-11-04T08:32:56.571Z,1752
2022-11-04T08:33:58.204Z,1876
2022-11-04T08:34:57.305Z,1960
2022-11-04T08:35:56.657Z,1992
2022-11-04T08:36:57.191Z,2016
2022-11-04T08:37:57.716Z,2012
2022-11-04T08:38:58.188Z,2020
2022-11-04T08:39:57.673Z,2112
2022-11-04T08:41:04.537Z,2284
2022-11-04T08:41:59.569Z,2488
2022-11-04T08:42:56.619Z,2696
2022-11-04T08:43:56.747Z,2808
2022-11-04T08:44:56.879Z,2824
2022-11-04T08:45:56.626Z,2784
2022-11-04T08:46:56.844Z,2732
2022-11-04T08:47:59.068Z,2692
2022-11-04T13:54:22.982Z,2968
2022-11-04T13:55:09.311Z,2992
2022-11-04T13:56:40.184Z,3028
2022-11-04T13:57:10.450Z,3036
2022-11-04T13:58:09.327Z,3064
2022-11-04T13:59:09.639Z,3096
2022-11-04T14:00:09.078Z,3136
2022-11-04T14:01:08.869Z,3156
2022-11-04T14:02:09.735Z,3160
2022-11-04T14:03:09.984Z,3128
2022-11-04T14:04:09.117Z,3076
2022-11-04T14:05:08.973Z,3008
2022-11-04T14:06:08.993Z,2932
2022-11-04T14:07:08.990Z,2856
2022-11-04T14:08:09.122Z,2780
2022-11-04T14:09:08.633Z,2704
2022-11-04T14:10:09.895Z,2632
2022-11-04T14:11:09.369Z,2568
2022-11-04T14:12:08.805Z,2516
2022-11-04T14:13:09.499Z,2464
2022-11-04T14:14:09.298Z,2424
2022-11-04T14:15:08.798Z,2396
2022-11-04T14:16:08.987Z,2360
2022-11-04T14:17:08.857Z,2324
2022-11-04T14:18:15.228Z,2268
2022-11-04T14:19:08.581Z,2228
2022-11-04T14:20:09.080Z,2172
2022-11-04T14:21:09.042Z,2108
2022-11-04T14:22:09.133Z,2044
2022-11-04T14:23:10.030Z,1988
2022-11-04T14:24:16.412Z,1936
2022-11-04T14:25:09.643Z,1892
2022-11-04T14:26:09.872Z,1848
2022-11-04T14:27:09.804Z,1812
2022-11-04T14:28:09.338Z,1788
2022-11-04T14:29:09.347Z,1776
2022-11-04T14:30:09.523Z,1768
2022-11-04T14:31:41.077Z,1764
2022-11-04T14:32:08.778Z,1760
2022-11-04T14:33:09.743Z,1744
2022-11-04T14:34:09.316Z,1708
2022-11-04T14:35:09.097Z,1656
2022-11-04T14:36:09.073Z,1588
2022-11-04T14:37:09.345Z,1520
2022-11-04T14:38:09.667Z,1452
2022-11-04T14:39:09.662Z,1392
2022-11-04T14:40:09.594Z,1344
2022-11-04T14:41:09.567Z,1304
2022-11-04T14:42:09.214Z,1276
2022-11-04T14:43:10.615Z,1248
2022-11-04T14:44:09.109Z,1224
2022-11-04T14:45:09.137Z,1204
2022-11-04T14:46:09.205Z,1188
2022-11-04T14:47:09.077Z,1176
